Terminal Aerodrome Forecast
Issued by NWS

Home | Current Version | Previous Version | Text Only | Print | Product List | Glossary On
Versions: 1 2 3 4 5 6 7 8 9 10 11 12
000
FTUS44 KEPZ 251720
TAFTCS
TAF
KTCS 251720Z 2518/2618 02004KT P6SM FEW120 SCT180
     FM251900 07006KT P6SM FEW090 SCT150 BKN250
     FM260200 18007KT P6SM SCT090 BKN130 OVC250
     FM260800 30005KT P6SM FEW130 OVC220
     FM261700 16007KT P6SM FEW090 FEW130=

USA.gov is the U.S. government's official web portal to all federal, state and local government web resources and services.